Flight Track Log - Related Links

Times and Time Zones

All times are in EDT time to prevent confusion due to time zone crossing. See the N456KT flight status page for this flight to view local times or setup timezone preferences in your user account.

Time Position Orientation Groundspeed Altitude Reporting Facility
EDT Latitude Longitude Course Direction KTS MPH feet Rate Location/Type
Fri 09:30:41 PM 40.0758 -83.0831 274° West 135 155 1,200  Level Indianapolis Center
Fri 09:31:20 PM 40.0781 -83.1267 274° West 204 235 3,800 4,740 Climbing Indianapolis Center
Fri 09:32:21 PM 40.0711 -83.2169 264° West 237 273 9,100 4,732 Climbing Indianapolis Center
Fri 09:33:23 PM 40.0653 -83.3086 265° West 259 298 13,500 3,415 Climbing Indianapolis Center
Fri 09:34:24 PM 40.0586 -83.4111 265° West 279 321 16,100 1,230 Climbing Indianapolis Center
Fri 09:35:25 PM 40.0500 -83.5322 265° West 333 383 16,000 -49 Descending Indianapolis Center
Fri 09:36:26 PM 40.0669 -83.6575 280° West 351 404 16,000  Level Indianapolis Center
Fri 09:37:27 PM 40.0892 -83.7769 284° West 346 398 16,000  Level Indianapolis Center
Fri 09:38:28 PM 40.1503 -83.9056 302° West 348 400 16,000  Level Indianapolis Center
Fri 09:39:29 PM 40.1989 -84.0136 301° West 348 400 16,000  Level Indianapolis Center
Fri 09:40:31 PM 40.2475 -84.1225 300° West 348 400 16,000  Level Indianapolis Center
Fri 09:41:32 PM 40.2981 -84.2353 300° West 355 409 16,000  Level Indianapolis Center
Fri 09:42:33 PM 40.3511 -84.3475 302° West 361 415 16,000  Level Indianapolis Center
Fri 09:43:34 PM 40.4039 -84.4544 303° West 355 409 16,000  Level Indianapolis Center
Fri 09:44:35 PM 40.4583 -84.5586 305° West 350 403 16,000  Level Indianapolis Center
Fri 09:45:37 PM 40.5103 -84.6650 303° West 349 402 16,000 -537 Level Indianapolis Center
Fri 09:46:38 PM 40.5614 -84.7717 302° West 348 400 14,900 -1,475 Descending Indianapolis Center
Fri 09:47:39 PM 40.6181 -84.9011 300° West 344 396 13,000 -1,475 Descending Indianapolis Center
Fri 09:48:40 PM 40.6550 -84.9814 301° West 313 360 11,900 -1,033 Descending Indianapolis Center
Fri 09:49:41 PM 40.6950 -85.0656 302° West 283 326 10,900 -1,200 Descending Indianapolis Center
Fri 09:50:45 PM 40.7383 -85.1547 303° West 280 322 9,400 -1,857 Descending Chicago Center
Fri 09:51:47 PM 40.8189 -85.1783 347° North 300 345 7,000 -2,244 Descending Chicago Center
Fri 09:52:48 PM 40.8953 -85.1242 28° Northeast 309 356 4,800 -1,951 Descending Chicago Center
Fri 09:53:50 PM 40.9625 -85.0736 30° Northeast 297 342 3,000 -1,258 Descending Chicago Center
Fri 09:54:52 PM 41.0189 -85.0506 17° North 253 291 2,200 -439 Descending Chicago Center
Fri 09:55:53 PM 41.0444 -85.0983 305° West 196 226 2,100 -195 Descending Chicago Center
Fri 09:56:55 PM 41.0197 -85.1367 229° Southwest 157 181 1,800 -293 Descending Chicago Center
Fri 09:57:56 PM 40.9908 -85.1731 224° Southwest 145 167 1,500 -295 Descending Chicago Center
Fri 09:59:00 PM 40.9667 -85.1833 217° Southwest  Level FlightAware Approximate

Login

Don't have an account? Register now (free) for customized features, flight alerts, and more!